createdAt,value
2022-08-22T00:02:03.421Z,75.97
2022-08-22T00:02:45.270Z,64.39
2022-08-22T00:02:49.197Z,71.50
2022-08-22T00:02:55.068Z,76.53
2022-08-22T00:02:56.069Z,70.50
2022-08-22T00:02:58.751Z,74.86
2022-08-22T00:03:00.023Z,62.06
2022-08-22T00:03:00.779Z,66.63
2022-08-22T00:04:43.112Z,75.48
2022-08-22T00:07:37.097Z,75.77
2022-08-22T00:10:12.065Z,75.61
2022-08-22T00:13:00.071Z,75.85
2022-08-22T00:15:43.247Z,75.55
2022-08-22T00:18:51.027Z,76.08
2022-08-22T00:21:29.632Z,76.15
2022-08-22T00:24:16.590Z,75.95
2022-08-22T00:27:07.523Z,75.58
2022-08-22T00:29:55.960Z,75.75
2022-08-22T00:32:54.264Z,75.88
2022-08-22T00:35:32.289Z,76.22
2022-08-22T00:38:22.138Z,75.76
2022-08-22T00:41:16.597Z,75.78
2022-08-22T00:44:11.332Z,76.67
2022-08-22T00:46:51.400Z,76.55
2022-08-22T00:49:42.341Z,76.41
2022-08-22T00:52:29.534Z,76.35
2022-08-22T00:55:11.423Z,77.00
2022-08-22T00:58:04.669Z,77.13
2022-08-22T01:00:40.838Z,77.21
2022-08-22T01:03:26.714Z,77.37
2022-08-22T01:06:10.792Z,77.20
2022-08-22T01:08:51.098Z,77.16
2022-08-22T01:12:01.483Z,77.05
2022-08-22T01:14:40.892Z,76.93
2022-08-22T01:17:33.175Z,77.66
2022-08-22T01:20:28.162Z,77.78
2022-08-22T01:23:18.847Z,77.79
2022-08-22T01:26:03.835Z,77.24
2022-08-22T01:28:45.811Z,77.91
2022-08-22T01:31:31.703Z,78.37
2022-08-22T01:34:40.022Z,78.35
2022-08-22T01:37:28.382Z,78.16
2022-08-22T01:40:53.963Z,78.18
2022-08-22T01:44:01.607Z,77.80
2022-08-22T01:46:34.235Z,78.05
2022-08-22T01:49:40.966Z,77.91
2022-08-22T01:52:48.383Z,77.72
2022-08-22T01:55:36.947Z,77.28
2022-08-22T01:58:18.276Z,77.36
2022-08-22T02:01:13.461Z,76.68
2022-08-22T02:03:55.513Z,76.82
2022-08-22T02:06:33.172Z,77.10
2022-08-22T02:09:22.327Z,77.52
2022-08-22T02:12:00.254Z,77.85
2022-08-22T02:14:36.542Z,78.24
2022-08-22T02:17:27.924Z,78.02
2022-08-22T02:20:16.235Z,77.92
2022-08-22T02:23:19.596Z,78.03
2022-08-22T02:25:56.533Z,78.20
2022-08-22T02:28:25.969Z,78.02
2022-08-22T02:30:56.689Z,78.07
2022-08-22T02:33:34.058Z,78.27
2022-08-22T02:36:16.240Z,78.74
2022-08-22T02:38:56.669Z,79.00
2022-08-22T02:41:44.516Z,79.37
2022-08-22T02:44:51.945Z,79.08
2022-08-22T02:47:46.147Z,79.21
2022-08-22T02:50:38.544Z,79.16
2022-08-22T02:53:17.378Z,79.32
2022-08-22T02:55:48.170Z,79.07
2022-08-22T02:58:40.736Z,78.76
2022-08-22T03:01:23.795Z,78.93
2022-08-22T03:03:52.551Z,78.98
2022-08-22T03:06:43.665Z,79.20
2022-08-22T03:09:16.311Z,79.39
2022-08-22T03:12:19.517Z,79.16
2022-08-22T03:15:28.431Z,79.77
2022-08-22T03:18:16.878Z,79.77
2022-08-22T03:20:54.033Z,80.21
2022-08-22T03:23:44.051Z,80.09
2022-08-22T03:26:22.541Z,80.04
2022-08-22T03:29:02.905Z,80.47
2022-08-22T03:31:31.890Z,80.19
2022-08-22T03:34:26.609Z,80.50
2022-08-22T03:37:06.948Z,80.87
2022-08-22T03:39:59.816Z,80.76
2022-08-22T03:42:29.521Z,80.61
2022-08-22T03:44:59.677Z,81.24
2022-08-22T03:47:49.596Z,81.19
2022-08-22T03:50:22.310Z,81.62
2022-08-22T03:53:19.466Z,81.43
2022-08-22T03:56:28.004Z,81.25
2022-08-22T03:59:16.541Z,81.66
2022-08-22T04:02:43.620Z,81.43
2022-08-22T04:05:26.753Z,81.47
2022-08-22T04:08:26.136Z,82.01
2022-08-22T04:11:11.294Z,82.11
2022-08-22T04:14:16.552Z,81.96
2022-08-22T04:16:49.357Z,81.86
2022-08-22T04:19:47.901Z,82.14
2022-08-22T04:22:29.401Z,82.80
2022-08-22T04:24:59.606Z,82.69
2022-08-22T04:27:35.878Z,83.06
2022-08-22T04:30:31.824Z,83.14
2022-08-22T04:33:10.738Z,83.65
2022-08-22T04:36:01.942Z,83.97
2022-08-22T04:38:36.779Z,83.69
2022-08-22T04:41:19.317Z,82.81
2022-08-22T04:43:58.825Z,82.82
2022-08-22T04:46:36.634Z,82.54
2022-08-22T04:49:29.090Z,82.47
2022-08-22T04:52:29.401Z,82.57
2022-08-22T04:55:08.703Z,82.37
2022-08-22T04:57:57.385Z,82.78
2022-08-22T05:00:26.283Z,82.77
2022-08-22T05:02:57.859Z,82.54
2022-08-22T05:05:29.199Z,82.22
2022-08-22T05:07:59.821Z,82.57
2022-08-22T05:10:38.512Z,82.36
2022-08-22T05:13:15.653Z,82.51
2022-08-22T05:15:47.695Z,82.22
2022-08-22T05:18:29.568Z,82.51
2022-08-22T05:21:00.501Z,82.24
2022-08-22T05:23:46.781Z,82.64
2022-08-22T05:26:15.108Z,82.07
2022-08-22T05:28:50.170Z,82.62
2022-08-22T05:31:26.692Z,82.89
2022-08-22T05:33:59.602Z,83.05
2022-08-22T05:36:30.071Z,83.09
2022-08-22T05:39:05.017Z,83.65
2022-08-22T05:41:36.783Z,84.15
2022-08-22T05:44:03.897Z,83.58
2022-08-22T05:46:41.899Z,83.33
2022-08-22T05:49:19.741Z,83.36
2022-08-22T05:52:20.315Z,82.59
2022-08-22T05:55:03.611Z,81.95
2022-08-22T05:57:35.742Z,81.48
2022-08-22T06:00:11.472Z,82.17
2022-08-22T06:03:17.524Z,81.58
2022-08-22T06:05:51.043Z,81.60
2022-08-22T06:08:27.149Z,81.55
2022-08-22T06:10:56.315Z,82.45
2022-08-22T06:13:42.454Z,81.50
2022-08-22T06:16:24.552Z,81.66
2022-08-22T06:18:52.633Z,80.81
2022-08-22T06:21:25.617Z,80.72
2022-08-22T06:23:59.903Z,80.47
2022-08-22T06:26:48.214Z,80.36
2022-08-22T06:29:36.432Z,79.62
2022-08-22T06:32:16.613Z,79.92
2022-08-22T06:35:11.221Z,79.88
2022-08-22T06:37:41.360Z,79.43
2022-08-22T06:40:11.255Z,79.65
2022-08-22T06:42:42.704Z,78.54
2022-08-22T06:45:29.696Z,77.59
2022-08-22T06:48:12.537Z,76.90
2022-08-22T06:50:42.550Z,76.83
2022-08-22T06:53:17.736Z,76.26
2022-08-22T06:56:05.405Z,75.53
2022-08-22T06:58:44.489Z,73.87
2022-08-22T07:01:16.071Z,74.43
2022-08-22T07:03:50.102Z,74.36
2022-08-22T07:06:21.195Z,73.88
2022-08-22T07:08:53.435Z,73.38
2022-08-22T07:11:28.674Z,73.49
2022-08-22T07:14:00.209Z,72.96
2022-08-22T07:16:34.364Z,72.22
2022-08-22T07:19:01.717Z,72.45
2022-08-22T07:21:32.589Z,71.42
2022-08-22T07:24:03.213Z,71.01
2022-08-22T07:27:02.694Z,69.37
2022-08-22T07:29:49.254Z,69.62
2022-08-22T07:32:24.661Z,68.85
2022-08-22T07:34:59.564Z,68.59
2022-08-22T07:37:33.163Z,68.47
2022-08-22T07:40:34.981Z,68.22
2022-08-22T07:43:15.330Z,69.31
2022-08-22T07:46:01.931Z,68.03
2022-08-22T07:48:59.343Z,67.74
2022-08-22T07:51:47.855Z,66.13
2022-08-22T07:54:27.234Z,66.18
2022-08-22T07:57:11.815Z,65.71
2022-08-22T07:59:45.862Z,63.84
2022-08-22T08:02:14.413Z,62.39
2022-08-22T08:04:42.585Z,62.41
2022-08-22T08:07:13.713Z,63.35
2022-08-22T08:09:45.757Z,62.89
2022-08-22T08:12:14.974Z,61.99
2022-08-22T08:14:44.561Z,60.68
2022-08-22T08:17:28.788Z,61.02
2022-08-22T08:20:02.742Z,61.88
2022-08-22T08:22:29.740Z,61.53
2022-08-22T08:24:59.004Z,59.99
2022-08-22T08:27:50.496Z,61.07
2022-08-22T08:30:35.402Z,60.23
2022-08-22T08:33:25.155Z,58.91
2022-08-22T08:36:11.229Z,58.08
2022-08-22T08:38:55.491Z,60.31
2022-08-22T08:41:36.927Z,59.33
2022-08-22T08:44:24.632Z,58.09
2022-08-22T08:47:11.165Z,59.37
2022-08-22T08:49:55.404Z,58.69
2022-08-22T08:52:36.360Z,60.21
2022-08-22T08:55:22.760Z,57.42
2022-08-22T08:58:26.650Z,56.92
2022-08-22T09:01:02.221Z,56.46
2022-08-22T09:03:52.972Z,56.54
2022-08-22T09:06:52.852Z,56.15
2022-08-22T09:09:52.728Z,58.26
2022-08-22T09:16:05.047Z,56.09
2022-08-22T09:19:00.303Z,58.46
2022-08-22T09:22:04.149Z,56.91
2022-08-22T09:24:31.032Z,56.75
2022-08-22T09:27:02.060Z,54.48
2022-08-22T09:29:57.103Z,55.21
2022-08-22T09:32:33.657Z,55.31
2022-08-22T09:35:05.571Z,54.97
2022-08-22T09:37:47.850Z,54.29
2022-08-22T09:40:16.449Z,57.85
2022-08-22T09:43:12.723Z,55.62
2022-08-22T09:45:45.298Z,54.16
2022-08-22T09:48:31.518Z,51.63
2022-08-22T09:51:33.302Z,54.55
2022-08-22T09:54:31.684Z,51.43
2022-08-22T09:57:30.737Z,51.46
2022-08-22T10:00:13.351Z,52.81
2022-08-22T10:03:11.353Z,51.78
2022-08-22T10:05:45.028Z,52.64
2022-08-22T10:08:26.190Z,51.66
2022-08-22T10:11:03.220Z,52.28
2022-08-22T10:14:10.118Z,52.24
2022-08-22T10:16:59.627Z,53.20
2022-08-22T10:19:47.836Z,52.97
2022-08-22T10:22:46.977Z,53.82
2022-08-22T10:25:28.751Z,53.66
2022-08-22T10:28:23.788Z,53.81
2022-08-22T10:31:08.035Z,53.87
2022-08-22T10:33:37.780Z,53.81
2022-08-22T10:36:23.676Z,51.88
2022-08-22T10:38:55.806Z,51.99
2022-08-22T10:41:32.593Z,51.81
2022-08-22T10:44:16.907Z,52.60
2022-08-22T10:47:03.357Z,51.62
2022-08-22T10:49:51.315Z,51.30
2022-08-22T10:52:26.821Z,50.48
2022-08-22T10:55:00.788Z,50.36
2022-08-22T10:57:57.288Z,50.88
2022-08-22T11:00:49.728Z,50.46
2022-08-22T11:03:42.130Z,51.61
2022-08-22T11:06:29.129Z,53.28
2022-08-22T11:09:17.201Z,52.62
2022-08-22T11:11:46.527Z,52.03
2022-08-22T11:14:33.732Z,52.20
2022-08-22T11:17:29.930Z,51.25
2022-08-22T11:20:21.230Z,50.10
2022-08-22T11:23:06.369Z,50.52
2022-08-22T11:25:52.386Z,50.27
2022-08-22T11:28:58.053Z,49.66
2022-08-22T11:31:55.352Z,48.34
2022-08-22T11:34:53.498Z,48.21
2022-08-22T11:37:54.905Z,46.43
2022-08-22T11:40:34.277Z,47.08
2022-08-22T11:43:07.436Z,47.98
2022-08-22T11:45:50.004Z,49.45
2022-08-22T11:48:28.910Z,48.21
2022-08-22T11:51:14.071Z,47.35
2022-08-22T11:53:48.122Z,49.50
2022-08-22T11:56:35.662Z,47.01
2022-08-22T11:59:32.966Z,46.91
2022-08-22T12:02:17.441Z,46.17
2022-08-22T12:05:03.853Z,44.75
2022-08-22T12:07:37.724Z,48.18
2022-08-22T12:10:17.094Z,50.61
2022-08-22T12:13:05.470Z,51.31
2022-08-22T12:15:47.236Z,52.87
2022-08-22T12:18:41.228Z,50.37
2022-08-22T12:21:38.617Z,52.32
2022-08-22T12:24:30.570Z,51.05
2022-08-22T12:27:09.948Z,52.82
2022-08-22T12:30:05.123Z,51.74
2022-08-22T12:32:56.815Z,49.48
2022-08-22T12:35:29.914Z,53.58
2022-08-22T12:38:29.005Z,52.89
2022-08-22T12:41:28.116Z,52.57
2022-08-22T12:44:30.932Z,50.51
2022-08-22T12:47:09.884Z,51.50
2022-08-22T12:50:00.649Z,52.16
2022-08-22T12:52:55.579Z,52.37
2022-08-22T12:56:12.894Z,53.25
2022-08-22T12:59:12.526Z,51.81
2022-08-22T13:01:48.102Z,50.67
2022-08-22T13:04:33.569Z,52.76
2022-08-22T13:07:07.338Z,53.44
2022-08-22T13:09:37.609Z,51.55
2022-08-22T13:12:22.986Z,52.74
2022-08-22T13:14:54.592Z,53.14
2022-08-22T13:17:24.947Z,52.56
2022-08-22T13:20:16.019Z,52.57
2022-08-22T13:22:46.050Z,52.97
2022-08-22T13:25:25.841Z,53.43
2022-08-22T13:28:02.468Z,53.24
2022-08-22T13:30:37.659Z,54.36
2022-08-22T13:33:12.136Z,54.58
2022-08-22T13:35:54.285Z,54.37
2022-08-22T13:38:38.390Z,52.04
2022-08-22T13:41:18.709Z,52.00
2022-08-22T13:44:04.846Z,53.43
2022-08-22T13:47:10.889Z,52.34
2022-08-22T13:49:42.074Z,51.96
2022-08-22T13:52:30.030Z,51.51
2022-08-22T13:55:28.867Z,52.08
2022-08-22T13:58:06.978Z,52.93
2022-08-22T14:01:12.338Z,52.97
2022-08-22T14:03:55.403Z,52.79
2022-08-22T14:06:46.446Z,50.75
2022-08-22T14:09:31.202Z,52.97
2022-08-22T14:12:16.097Z,53.51
2022-08-22T14:14:46.888Z,51.76
2022-08-22T14:17:17.485Z,54.07
2022-08-22T14:19:59.599Z,54.23
2022-08-22T14:22:35.294Z,51.13
2022-08-22T14:25:11.634Z,53.81
2022-08-22T14:27:47.726Z,53.82
2022-08-22T14:30:24.454Z,52.44
2022-08-22T14:33:22.378Z,53.17
2022-08-22T14:35:54.028Z,51.18
2022-08-22T14:38:33.025Z,51.88
2022-08-22T14:41:21.058Z,52.26
2022-08-22T14:44:06.922Z,51.13
2022-08-22T14:46:51.721Z,49.67
2022-08-22T14:49:18.424Z,50.48
2022-08-22T14:51:59.962Z,51.06
2022-08-22T14:54:28.960Z,50.66
2022-08-22T14:56:57.412Z,50.95
2022-08-22T14:59:38.865Z,51.11
2022-08-22T15:02:27.639Z,51.45
2022-08-22T15:04:56.140Z,50.89
2022-08-22T15:07:29.917Z,51.17
2022-08-22T15:10:03.367Z,50.42
2022-08-22T15:12:43.570Z,49.51
2022-08-22T15:15:41.125Z,48.12
2022-08-22T15:18:28.433Z,48.54
2022-08-22T15:21:11.439Z,48.83
2022-08-22T15:23:52.878Z,49.02
2022-08-22T15:26:40.946Z,50.09
2022-08-22T15:29:20.765Z,49.90
2022-08-22T15:31:54.626Z,49.75
2022-08-22T15:34:37.844Z,50.20
2022-08-22T15:37:25.493Z,49.92
2022-08-22T15:39:57.843Z,49.88
2022-08-22T15:42:33.176Z,49.64
2022-08-22T15:45:00.977Z,49.53
2022-08-22T15:47:47.355Z,48.13
2022-08-22T15:50:58.320Z,49.16
2022-08-22T15:53:34.204Z,50.53
2022-08-22T15:56:06.975Z,51.21
2022-08-22T15:58:48.922Z,50.07
2022-08-22T16:01:22.522Z,50.24
2022-08-22T16:04:06.708Z,49.51
2022-08-22T16:07:01.408Z,50.10
2022-08-22T16:09:44.462Z,50.42
2022-08-22T16:12:26.059Z,50.14
2022-08-22T16:14:53.354Z,50.72
2022-08-22T16:17:29.258Z,51.56
2022-08-22T16:20:19.421Z,52.01
2022-08-22T16:22:59.290Z,52.79
2022-08-22T16:25:50.376Z,51.99
2022-08-22T16:28:56.882Z,51.63
2022-08-22T16:31:27.314Z,52.13
2022-08-22T16:33:59.009Z,50.92
2022-08-22T16:36:41.033Z,53.43
2022-08-22T16:39:41.214Z,52.53
2022-08-22T16:42:22.119Z,53.22
2022-08-22T16:45:06.878Z,53.16
2022-08-22T16:47:33.448Z,54.30
2022-08-22T16:50:24.323Z,54.43
2022-08-22T16:52:53.998Z,53.72
2022-08-22T16:55:44.449Z,54.37
2022-08-22T16:58:40.267Z,54.86
2022-08-22T17:01:38.250Z,54.88
2022-08-22T17:04:32.073Z,55.94
2022-08-22T17:06:58.713Z,56.75
2022-08-22T17:09:50.056Z,56.48
2022-08-22T17:12:37.120Z,56.28
2022-08-22T17:15:21.294Z,56.15
2022-08-22T17:17:53.912Z,56.93
2022-08-22T17:20:37.768Z,57.14
2022-08-22T17:23:22.987Z,57.26
2022-08-22T17:26:04.096Z,57.82
2022-08-22T17:28:52.604Z,58.04
2022-08-22T17:31:38.722Z,58.02
2022-08-22T17:34:47.412Z,58.03
2022-08-22T17:37:26.132Z,58.92
2022-08-22T17:40:17.729Z,59.27
2022-08-22T17:43:48.680Z,59.32
2022-08-22T17:46:31.319Z,59.74
2022-08-22T17:49:12.837Z,60.66
2022-08-22T17:51:51.061Z,60.88
2022-08-22T17:54:31.792Z,60.59
2022-08-22T17:57:14.617Z,60.98
2022-08-22T17:59:59.266Z,61.19
2022-08-22T18:02:41.676Z,61.45
2022-08-22T18:05:19.500Z,62.13
2022-08-22T18:08:01.677Z,62.63
2022-08-22T18:10:47.760Z,62.88
2022-08-22T18:13:49.506Z,63.38
2022-08-22T18:16:33.903Z,64.18
2022-08-22T18:19:17.930Z,63.84
2022-08-22T18:22:04.677Z,64.05
2022-08-22T18:24:42.056Z,64.48
2022-08-22T18:27:34.981Z,65.06
2022-08-22T18:30:19.880Z,65.85
2022-08-22T18:32:47.061Z,65.67
2022-08-22T18:35:41.105Z,65.09
2022-08-22T18:38:24.104Z,64.59
2022-08-22T18:41:05.431Z,64.26
2022-08-22T18:44:50.960Z,64.05
2022-08-22T18:46:38.501Z,64.53
2022-08-22T18:49:34.407Z,64.04
2022-08-22T18:52:18.047Z,64.69
2022-08-22T18:55:15.537Z,64.58
2022-08-22T18:58:07.185Z,65.03
2022-08-22T19:01:04.830Z,64.76
2022-08-22T19:03:43.627Z,64.57
2022-08-22T19:06:32.200Z,64.75
2022-08-22T19:12:18.439Z,64.61
2022-08-22T19:15:06.985Z,64.80
2022-08-22T19:17:58.718Z,64.96
2022-08-22T19:20:53.785Z,65.29
2022-08-22T19:23:32.508Z,65.60
2022-08-22T19:26:23.464Z,65.36
2022-08-22T19:28:57.953Z,65.61
2022-08-22T19:31:57.783Z,65.65
2022-08-22T19:34:33.013Z,65.60
2022-08-22T19:37:32.703Z,65.40
2022-08-22T19:40:16.901Z,65.67
2022-08-22T19:42:56.205Z,65.51
2022-08-22T19:45:30.802Z,65.69
2022-08-22T19:51:41.057Z,65.85
2022-08-22T19:54:41.964Z,66.58
2022-08-22T19:57:20.262Z,66.05
2022-08-22T20:00:40.584Z,66.30
2022-08-22T20:03:41.777Z,66.19
2022-08-22T20:06:43.390Z,65.34
2022-08-22T20:09:40.899Z,64.56
2022-08-22T20:12:47.676Z,64.55
2022-08-22T20:15:26.602Z,64.68
2022-08-22T20:18:47.241Z,64.61
2022-08-22T20:21:07.331Z,64.78
2022-08-22T20:23:34.624Z,63.96
2022-08-22T20:26:08.155Z,64.93
2022-08-22T20:32:21.700Z,65.41
2022-08-22T20:35:06.370Z,64.75
2022-08-22T20:38:08.524Z,64.46
2022-08-22T20:40:57.379Z,64.10
2022-08-22T20:43:34.588Z,63.57
2022-08-22T20:46:44.041Z,64.31
2022-08-22T20:49:23.612Z,64.65
2022-08-22T20:52:00.717Z,64.97
2022-08-22T20:54:33.087Z,65.43
2022-08-22T20:57:03.025Z,64.92
2022-08-22T20:59:41.628Z,65.47
2022-08-22T21:02:29.586Z,64.98
2022-08-22T21:05:14.581Z,64.90
2022-08-22T21:08:10.074Z,65.40
2022-08-22T21:10:57.887Z,66.12
2022-08-22T21:13:48.487Z,66.50
2022-08-22T21:16:33.381Z,66.33
2022-08-22T21:19:04.179Z,65.98
2022-08-22T21:21:34.873Z,66.39
2022-08-22T21:24:11.697Z,67.10
2022-08-22T21:26:50.111Z,66.73
2022-08-22T21:29:16.671Z,66.20
2022-08-22T21:31:51.895Z,65.92
2022-08-22T21:34:26.526Z,66.15
2022-08-22T21:37:02.618Z,65.63
2022-08-22T21:39:47.737Z,66.81
2022-08-22T21:42:36.319Z,66.78
2022-08-22T21:45:15.954Z,66.40
2022-08-22T21:47:45.490Z,66.40
2022-08-22T21:50:25.145Z,66.45
2022-08-22T21:53:10.134Z,66.97
2022-08-22T21:55:43.166Z,66.80
2022-08-22T21:59:00.479Z,67.50
2022-08-22T22:01:32.752Z,67.67
2022-08-22T22:04:03.283Z,68.01
2022-08-22T22:06:32.277Z,68.52
2022-08-22T22:08:59.014Z,68.62
2022-08-22T22:11:29.748Z,68.85
2022-08-22T22:13:59.060Z,68.59
2022-08-22T22:16:28.350Z,68.01
2022-08-22T22:18:58.226Z,67.49
2022-08-22T22:21:24.847Z,67.12
2022-08-22T22:23:52.483Z,66.90
2022-08-22T22:26:21.009Z,67.31
2022-08-22T22:28:51.206Z,67.17
2022-08-22T22:31:18.590Z,66.65
2022-08-22T22:33:45.734Z,66.59
2022-08-22T22:36:18.176Z,66.63
2022-08-22T22:38:44.945Z,67.49
2022-08-22T22:41:17.188Z,67.72
2022-08-22T22:43:45.390Z,67.53
2022-08-22T22:46:14.580Z,67.42
2022-08-22T22:48:41.400Z,67.62
2022-08-22T22:51:09.880Z,68.12
2022-08-22T22:53:38.358Z,67.19
2022-08-22T22:56:09.241Z,67.91
2022-08-22T22:58:37.487Z,67.63
2022-08-22T23:01:13.209Z,68.24
2022-08-22T23:03:40.468Z,68.43
2022-08-22T23:06:12.206Z,69.04
2022-08-22T23:08:40.316Z,69.42
2022-08-22T23:11:12.461Z,68.86
2022-08-22T23:13:42.954Z,69.10
2022-08-22T23:16:14.195Z,69.47
2022-08-22T23:18:45.405Z,69.35
2022-08-22T23:21:22.001Z,70.47
2022-08-22T23:23:49.619Z,70.17
2022-08-22T23:26:16.988Z,70.04
2022-08-22T23:28:44.346Z,70.57
2022-08-22T23:31:34.964Z,70.96
2022-08-22T23:34:07.969Z,71.16
2022-08-22T23:36:37.359Z,71.14
2022-08-22T23:39:06.835Z,71.33
2022-08-22T23:41:36.778Z,71.14
2022-08-22T23:44:05.678Z,71.03
2022-08-22T23:46:32.829Z,70.81
2022-08-22T23:49:02.470Z,71.18
2022-08-22T23:51:29.591Z,71.63
2022-08-22T23:53:57.958Z,71.33
2022-08-22T23:56:27.556Z,71.45
2022-08-22T23:58:54.613Z,72.02
